createdAt,value
2023-01-09T04:53:58.768Z,19.25
2023-01-09T04:56:52.958Z,19.26
2023-01-09T04:57:04.476Z,19.26
2023-01-09T04:57:15.025Z,19.26
2023-01-09T04:57:25.524Z,19.25
2023-01-09T04:57:36.110Z,19.26
2023-01-09T04:57:46.606Z,19.28
2023-01-09T04:57:57.150Z,19.25
2023-01-09T04:58:07.662Z,19.25
2023-01-09T04:58:18.213Z,19.26
2023-01-09T04:58:28.742Z,19.28
2023-01-09T04:58:39.282Z,19.28
2023-01-09T04:58:49.785Z,19.26
2023-01-09T04:59:00.823Z,19.28
2023-01-09T04:59:11.462Z,19.28
2023-01-09T04:59:22.160Z,19.28
2023-01-09T04:59:32.679Z,19.28
2023-01-09T04:59:43.229Z,19.28
2023-01-09T04:59:54.397Z,19.28
2023-01-09T05:00:04.452Z,19.29
2023-01-09T05:00:14.972Z,19.28
2023-01-09T05:00:26.009Z,19.29
2023-01-09T05:00:36.538Z,19.29
2023-01-09T05:00:47.552Z,19.29
2023-01-09T05:00:58.117Z,19.29
2023-01-09T05:01:08.758Z,19.29
2023-01-09T05:01:19.338Z,19.29
2023-01-09T05:01:29.975Z,19.29
2023-01-09T05:01:40.641Z,19.29
2023-01-09T05:01:51.485Z,19.31
2023-01-09T05:02:02.265Z,19.31
2023-01-09T05:02:12.933Z,19.31
2023-01-09T05:02:23.459Z,19.31
2023-01-09T05:02:34.003Z,19.31
2023-01-09T05:02:44.510Z,19.29
2023-01-09T05:02:55.040Z,19.31
2023-01-09T05:03:05.561Z,19.32
2023-01-09T05:03:16.103Z,19.28
2023-01-09T05:03:26.640Z,19.31
2023-01-09T05:03:37.166Z,19.31
2023-01-09T05:03:47.671Z,19.31
2023-01-09T05:03:58.255Z,19.31
2023-01-09T05:04:08.934Z,19.31
2023-01-09T05:04:19.549Z,19.31
2023-01-09T05:04:30.817Z,19.32
2023-01-09T05:04:40.939Z,19.31
2023-01-09T05:04:51.457Z,19.31
2023-01-09T05:05:02.010Z,19.31
2023-01-09T05:05:12.536Z,19.29
2023-01-09T05:05:23.071Z,19.31
2023-01-09T05:05:33.608Z,19.32
2023-01-09T05:05:44.166Z,19.31
2023-01-09T05:05:54.694Z,19.32
2023-01-09T05:06:05.230Z,19.32
2023-01-09T05:06:15.766Z,19.33
2023-01-09T05:06:26.409Z,19.31
2023-01-09T05:06:36.965Z,19.32
2023-01-09T05:06:47.520Z,19.32
2023-01-09T05:06:58.029Z,19.31
2023-01-09T05:07:08.569Z,19.32
2023-01-09T05:07:19.098Z,19.32
2023-01-09T05:07:29.669Z,19.32
2023-01-09T05:07:40.224Z,19.31
2023-01-09T05:07:50.750Z,19.32
2023-01-09T05:08:01.271Z,19.32
2023-01-09T05:08:11.817Z,19.32
2023-01-09T05:08:24.211Z,19.36
2023-01-09T05:08:33.638Z,19.32
2023-01-09T05:08:44.073Z,19.32
2023-01-09T05:08:54.610Z,19.32
2023-01-09T05:09:05.137Z,19.36
2023-01-09T05:09:15.727Z,19.32
2023-01-09T05:09:26.666Z,19.36
2023-01-09T05:09:38.666Z,19.33
2023-01-09T05:09:47.750Z,19.36
2023-01-09T05:09:58.867Z,19.33
2023-01-09T05:10:08.868Z,19.33
2023-01-09T05:10:19.751Z,19.36
2023-01-09T05:10:30.287Z,19.33
2023-01-09T05:10:40.820Z,19.36
2023-01-09T05:10:51.306Z,19.33
2023-01-09T05:11:01.829Z,19.36
2023-01-09T05:11:12.358Z,19.33
2023-01-09T05:11:22.895Z,19.33
2023-01-09T05:11:33.426Z,19.33
2023-01-09T05:11:43.924Z,19.33
2023-01-09T05:11:54.403Z,19.33
2023-01-09T05:12:05.448Z,19.33
2023-01-09T05:12:15.961Z,19.36
2023-01-09T05:12:26.486Z,19.33
2023-01-09T05:12:37.015Z,19.37
2023-01-09T05:12:48.013Z,19.37
2023-01-09T05:12:58.479Z,19.33
2023-01-09T05:13:09.472Z,19.36
2023-01-09T05:13:19.943Z,19.36
2023-01-09T05:13:30.928Z,19.36
2023-01-09T05:13:41.880Z,19.37
2023-01-09T05:13:52.823Z,19.36
2023-01-09T05:14:03.779Z,19.33
2023-01-09T05:14:14.766Z,19.37
2023-01-09T05:14:25.283Z,19.37
2023-01-09T05:14:36.261Z,19.36
2023-01-09T05:14:46.719Z,19.36
2023-01-09T05:14:57.712Z,19.36
2023-01-09T05:15:08.186Z,19.37
2023-01-09T05:15:19.175Z,19.37
2023-01-09T05:15:30.140Z,19.37
2023-01-09T05:15:41.158Z,19.36
2023-01-09T05:15:51.607Z,19.37
2023-01-09T05:16:02.598Z,19.37
2023-01-09T05:16:13.136Z,19.39
2023-01-09T05:16:23.630Z,19.36
2023-01-09T05:16:34.151Z,19.39
2023-01-09T05:16:45.160Z,19.39
2023-01-09T05:16:55.591Z,19.39
2023-01-09T05:17:06.581Z,19.39
2023-01-09T05:17:17.064Z,19.37
2023-01-09T05:17:28.045Z,19.40
2023-01-09T05:17:39.059Z,19.39
2023-01-09T05:17:49.595Z,19.39
2023-01-09T05:18:00.239Z,19.37
2023-01-09T05:18:10.773Z,19.40
2023-01-09T05:18:21.303Z,19.40
2023-01-09T05:18:31.844Z,19.40
2023-01-09T05:18:42.362Z,19.39
2023-01-09T05:18:52.908Z,19.40
2023-01-09T05:19:03.433Z,19.40
2023-01-09T05:19:13.975Z,19.39
2023-01-09T05:19:24.512Z,19.39
2023-01-09T05:19:35.065Z,19.40
2023-01-09T05:19:45.583Z,19.39
2023-01-09T05:19:56.118Z,19.39
2023-01-09T05:20:07.095Z,19.39
2023-01-09T05:20:17.633Z,19.41
2023-01-09T05:20:28.163Z,19.39
2023-01-09T05:20:38.694Z,19.40
2023-01-09T05:20:49.216Z,19.41
2023-01-09T05:20:59.771Z,19.43
2023-01-09T05:21:10.287Z,19.43
2023-01-09T05:21:20.832Z,19.41
2023-01-09T05:21:31.282Z,19.40
2023-01-09T05:21:42.288Z,19.41
2023-01-09T05:21:52.760Z,19.41
2023-01-09T05:22:03.737Z,19.41
2023-01-09T05:22:14.774Z,19.41
2023-01-09T05:22:25.790Z,19.41
2023-01-09T05:22:36.313Z,19.40
2023-01-09T05:22:46.839Z,19.43
2023-01-09T05:22:57.359Z,19.43
2023-01-09T05:23:07.858Z,19.41
2023-01-09T05:23:18.346Z,19.44
2023-01-09T05:23:29.318Z,19.43
2023-01-09T05:23:40.266Z,19.41
2023-01-09T05:23:51.264Z,19.41
2023-01-09T05:24:02.222Z,19.43
2023-01-09T05:24:13.215Z,19.43
2023-01-09T05:24:23.677Z,19.41
2023-01-09T05:24:34.630Z,19.41
2023-01-09T05:24:45.673Z,19.41
2023-01-09T05:24:56.234Z,19.41
2023-01-09T05:25:06.751Z,19.43
2023-01-09T05:25:17.763Z,19.43
2023-01-09T05:25:28.286Z,19.43
2023-01-09T05:25:38.831Z,19.43
2023-01-09T05:25:49.361Z,19.44
2023-01-09T05:25:59.929Z,19.41
2023-01-09T05:26:10.397Z,19.44
2023-01-09T05:26:21.370Z,19.44
2023-01-09T05:26:32.324Z,19.44
2023-01-09T05:26:43.301Z,19.43
2023-01-09T05:26:54.309Z,19.44
2023-01-09T05:27:04.827Z,19.43
2023-01-09T05:27:15.289Z,19.41
2023-01-09T05:27:26.271Z,19.44
2023-01-09T05:27:37.219Z,19.44
2023-01-09T05:27:48.200Z,19.43
2023-01-09T05:27:59.143Z,19.44
2023-01-09T05:28:10.115Z,19.44
2023-01-09T05:28:21.067Z,19.44
2023-01-09T05:28:32.034Z,19.43
2023-01-09T05:28:42.998Z,19.44
2023-01-09T05:28:53.960Z,19.43
2023-01-09T05:29:04.915Z,19.46
2023-01-09T05:29:15.871Z,19.44
2023-01-09T05:29:26.842Z,19.46
2023-01-09T05:29:37.801Z,19.44
2023-01-09T05:29:48.778Z,19.43
2023-01-09T05:29:59.765Z,19.44
2023-01-09T05:30:12.396Z,19.46
2023-01-09T05:30:21.457Z,19.44
2023-01-09T05:30:31.932Z,19.46
2023-01-09T07:27:02.131Z,16.31
2023-01-09T07:27:13.747Z,16.33
2023-01-09T07:27:24.294Z,16.35
2023-01-09T07:27:34.854Z,16.35
2023-01-09T07:27:45.365Z,16.38
2023-01-09T07:27:56.458Z,16.41
2023-01-09T07:28:06.499Z,16.43
2023-01-09T07:28:17.130Z,16.43
2023-01-09T07:28:27.677Z,16.46
2023-01-09T07:28:38.224Z,16.46
2023-01-09T07:28:48.759Z,16.48
2023-01-09T07:28:59.311Z,16.49
2023-01-09T07:29:09.844Z,16.50
2023-01-09T07:29:20.387Z,16.52
2023-01-09T07:29:30.924Z,16.53
2023-01-09T07:29:41.456Z,16.56
2023-01-09T07:29:51.991Z,16.57
2023-01-09T07:30:02.534Z,16.57
2023-01-09T07:30:13.062Z,16.58
2023-01-09T07:30:23.603Z,16.60
2023-01-09T07:30:34.151Z,16.61
2023-01-09T07:30:44.696Z,16.63
2023-01-09T07:30:55.281Z,16.63
2023-01-09T07:31:05.855Z,16.66
2023-01-09T07:31:16.378Z,16.66
2023-01-09T07:31:26.951Z,16.67
2023-01-09T07:31:37.539Z,16.68
2023-01-09T07:31:48.102Z,16.68
2023-01-09T07:31:58.636Z,16.73
2023-01-09T07:32:09.182Z,16.71
2023-01-09T07:32:19.709Z,16.73
2023-01-09T07:32:30.224Z,16.75
2023-01-09T07:32:40.754Z,16.75
2023-01-09T07:32:51.292Z,16.78
2023-01-09T07:33:03.884Z,16.78
2023-01-09T07:33:12.627Z,16.78
2023-01-09T07:33:23.142Z,16.81
2023-01-09T07:33:33.672Z,16.81
2023-01-09T07:33:44.239Z,16.81
2023-01-09T07:33:54.785Z,16.83
2023-01-09T07:34:05.316Z,16.85
2023-01-09T07:35:02.346Z,16.91
2023-01-09T07:50:05.538Z,17.34
2023-01-09T07:51:53.972Z,17.43
2023-01-09T07:52:05.508Z,17.41
2023-01-09T07:52:16.021Z,17.43
2023-01-09T07:52:26.535Z,17.46
2023-01-09T07:52:37.064Z,17.44
2023-01-09T07:52:47.576Z,17.46
2023-01-09T07:52:58.072Z,17.49
2023-01-09T07:53:09.097Z,17.46
2023-01-09T07:53:19.608Z,17.48
2023-01-09T07:53:30.136Z,17.49
2023-01-09T07:53:40.645Z,17.48
2023-01-09T07:53:51.674Z,17.49
2023-01-09T07:54:02.189Z,17.51
2023-01-09T07:54:12.718Z,17.49
2023-01-09T07:54:23.228Z,17.51
2023-01-09T07:54:34.246Z,17.51
2023-01-09T07:54:44.751Z,17.51
2023-01-09T07:54:55.778Z,17.52
2023-01-09T07:55:06.311Z,17.52
2023-01-09T07:55:17.712Z,17.54
2023-01-09T07:55:27.714Z,17.54
2023-01-09T07:55:38.736Z,17.54
2023-01-09T07:55:49.244Z,17.54
2023-01-09T07:55:59.772Z,17.54
2023-01-09T07:56:10.280Z,17.55
2023-01-09T07:56:20.816Z,17.54
2023-01-09T07:56:31.326Z,17.54
2023-01-09T07:56:41.858Z,17.55
2023-01-09T07:56:52.361Z,17.54
2023-01-09T07:57:03.383Z,17.55
2023-01-09T07:57:13.891Z,17.54
2023-01-09T07:57:24.931Z,17.55
2023-01-09T07:57:35.444Z,17.54
2023-01-09T07:57:46.016Z,17.55
2023-01-09T07:57:56.539Z,17.55
2023-01-09T07:58:07.064Z,17.54
2023-01-09T07:58:17.569Z,17.54
2023-01-09T07:58:28.593Z,17.54
2023-01-09T07:58:39.114Z,17.55
2023-01-09T07:58:49.654Z,17.55
2023-01-09T07:59:00.160Z,17.55
2023-01-09T07:59:11.185Z,17.55
2023-01-09T07:59:21.699Z,17.55
2023-01-09T07:59:32.221Z,17.55
2023-01-09T07:59:42.726Z,17.55
2023-01-09T07:59:54.270Z,17.55
2023-01-09T08:00:04.572Z,17.56
2023-01-09T08:00:15.118Z,17.55
2023-01-09T08:00:25.628Z,17.55
2023-01-09T08:00:36.655Z,17.54
2023-01-09T08:00:47.168Z,17.55
2023-01-09T08:00:57.740Z,17.55
2023-01-09T08:01:08.290Z,17.55
2023-01-09T08:01:18.888Z,17.54
2023-01-09T08:01:29.530Z,17.55
2023-01-09T08:01:40.193Z,17.54
2023-01-09T08:01:50.850Z,17.55
2023-01-09T08:02:01.472Z,17.52
2023-01-09T08:02:12.011Z,17.55
2023-01-09T08:02:22.645Z,17.54
2023-01-09T08:02:33.151Z,17.54
2023-01-09T08:02:43.712Z,17.54
2023-01-09T08:02:54.276Z,17.52
2023-01-09T08:03:04.887Z,17.55
2023-01-09T08:03:15.368Z,17.54
2023-01-09T08:03:26.393Z,17.55
2023-01-09T08:03:36.899Z,17.54
2023-01-09T08:03:47.936Z,17.54
2023-01-09T08:03:58.431Z,17.52
2023-01-09T08:04:09.457Z,17.54
2023-01-09T08:04:19.959Z,17.55
2023-01-09T08:04:30.986Z,17.52
2023-01-09T08:04:41.492Z,17.52
2023-01-09T08:04:52.518Z,17.52
2023-01-09T08:05:03.023Z,17.55
2023-01-09T08:05:14.051Z,17.54
2023-01-09T08:05:24.589Z,17.54
2023-01-09T08:05:35.128Z,17.52
2023-01-09T08:05:45.627Z,17.54
2023-01-09T08:05:56.165Z,17.54
2023-01-09T08:06:06.681Z,17.54
2023-01-09T08:06:17.199Z,17.54
2023-01-09T08:06:27.710Z,17.52
2023-01-09T08:08:07.586Z,17.54
2023-01-09T08:15:22.798Z,17.49
2023-01-09T08:16:59.067Z,17.49
2023-01-09T08:18:40.156Z,17.49
2023-01-09T08:20:57.454Z,17.51
2023-01-09T08:26:05.585Z,17.55
2023-01-09T08:47:37.325Z,18.27
2023-01-09T09:40:17.940Z,18.37
2023-01-09T09:42:01.227Z,18.36
2023-01-09T09:43:35.751Z,18.30
2023-01-09T09:45:00.565Z,18.27
2023-01-09T09:45:12.138Z,18.26
2023-01-09T09:47:16.529Z,18.23
2023-01-09T09:47:48.106Z,18.23
2023-01-09T09:48:18.702Z,18.23
2023-01-09T09:48:49.276Z,18.23
2023-01-09T09:49:19.866Z,18.25
2023-01-09T09:49:50.459Z,18.23
2023-01-09T09:51:02.361Z,18.27
2023-01-09T09:54:41.843Z,18.36
2023-01-09T09:56:55.019Z,18.47
